createdAt,value
2019-04-05T00:02:10.990Z,5.92
2019-04-05T00:04:37.176Z,5.84
2019-04-05T00:07:03.480Z,5.86
2019-04-05T00:09:29.655Z,5.95
2019-04-05T00:11:55.856Z,5.98
2019-04-05T00:14:21.925Z,5.93
2019-04-05T00:16:48.117Z,5.82
2019-04-05T00:19:14.237Z,5.84
2019-04-05T00:21:40.314Z,5.94
2019-04-05T00:24:06.519Z,5.93
2019-04-05T00:26:32.842Z,5.89
2019-04-05T00:28:59.148Z,5.86
2019-04-05T00:31:25.363Z,5.88
2019-04-05T00:33:51.544Z,5.90
2019-04-05T00:36:17.670Z,6.00
2019-04-05T00:38:43.850Z,5.85
2019-04-05T00:41:10.039Z,5.88
2019-04-05T00:43:36.111Z,5.92
2019-04-05T00:46:02.387Z,5.99
2019-04-05T00:48:28.586Z,5.92
2019-04-05T00:50:54.867Z,5.85
2019-04-05T00:53:21.099Z,5.94
2019-04-05T00:55:47.663Z,5.73
2019-04-05T00:58:13.973Z,5.82
2019-04-05T01:00:40.199Z,5.81
2019-04-05T01:03:06.501Z,5.82
2019-04-05T01:05:32.808Z,5.84
2019-04-05T01:07:59.099Z,5.89
2019-04-05T01:10:25.381Z,6.01
2019-04-05T01:12:51.623Z,5.94
2019-04-05T01:15:17.909Z,5.81
2019-04-05T01:17:44.127Z,5.67
2019-04-05T01:20:10.818Z,5.74
2019-04-05T01:22:39.531Z,5.72
2019-04-05T01:25:05.947Z,5.68
2019-04-05T01:27:33.824Z,5.77
2019-04-05T01:30:00.097Z,5.58
2019-04-05T01:32:26.314Z,5.68
2019-04-05T01:34:52.633Z,5.73
2019-04-05T01:37:20.313Z,5.72
2019-04-05T01:39:46.496Z,5.77
2019-04-05T01:42:12.594Z,5.78
2019-04-05T01:44:39.200Z,5.79
2019-04-05T01:47:05.391Z,5.80
2019-04-05T01:49:31.522Z,5.82
2019-04-05T01:51:57.832Z,5.81
2019-04-05T01:54:24.030Z,5.86
2019-04-05T01:56:50.128Z,5.80
2019-04-05T01:59:17.342Z,5.74
2019-04-05T02:01:43.617Z,5.82
2019-04-05T02:04:09.802Z,5.80
2019-04-05T02:06:36.090Z,5.86
2019-04-05T02:09:07.022Z,5.90
2019-04-05T02:11:33.241Z,5.92
2019-04-05T02:13:59.521Z,5.83
2019-04-05T02:16:25.890Z,5.88
2019-04-05T02:18:52.117Z,5.87
2019-04-05T02:21:18.300Z,5.85
2019-04-05T02:23:44.596Z,5.84
2019-04-05T02:26:10.861Z,5.90
2019-04-05T02:28:37.139Z,5.94
2019-04-05T02:31:03.522Z,5.82
2019-04-05T02:33:29.743Z,5.87
2019-04-05T02:35:56.070Z,5.88
2019-04-05T02:38:22.370Z,5.88
2019-04-05T02:40:50.466Z,5.69
2019-04-05T02:43:17.761Z,5.79
2019-04-05T02:45:45.771Z,5.86
2019-04-05T02:48:12.482Z,5.93
2019-04-05T02:50:42.383Z,5.98
2019-04-05T02:53:10.680Z,5.93
2019-04-05T02:55:39.406Z,5.92
2019-04-05T02:58:07.108Z,5.87
2019-04-05T03:00:33.793Z,5.86
2019-04-05T03:03:02.076Z,5.85
2019-04-05T03:05:28.476Z,5.92
2019-04-05T03:07:55.621Z,5.91
2019-04-05T03:10:45.679Z,5.92
2019-04-05T03:13:11.943Z,5.96
2019-04-05T03:15:38.332Z,5.83
2019-04-05T03:18:04.835Z,5.86
2019-04-05T03:20:31.225Z,5.93
2019-04-05T03:22:57.524Z,5.95
2019-04-05T03:25:24.086Z,5.89
2019-04-05T03:27:50.374Z,5.84
2019-04-05T03:30:16.756Z,5.96
2019-04-05T03:32:43.681Z,5.86
2019-04-05T03:35:10.379Z,5.89
2019-04-05T03:37:36.700Z,5.87
2019-04-05T03:40:05.195Z,5.81
2019-04-05T03:42:32.619Z,5.89
2019-04-05T03:44:59.106Z,5.77
2019-04-05T03:47:25.391Z,5.85
2019-04-05T03:49:51.721Z,5.78
2019-04-05T03:52:19.090Z,5.87
2019-04-05T03:54:45.279Z,5.91
2019-04-05T03:57:11.825Z,5.97
2019-04-05T03:59:38.098Z,5.96
2019-04-05T04:02:04.428Z,5.93
2019-04-05T04:04:30.737Z,5.92
2019-04-05T04:06:57.236Z,5.85
2019-04-05T04:09:23.566Z,5.86
2019-04-05T04:11:49.845Z,5.86
2019-04-05T04:14:16.452Z,5.83
2019-04-05T04:16:42.722Z,5.87
2019-04-05T04:19:09.241Z,5.87
2019-04-05T04:21:42.151Z,5.96
2019-04-05T04:24:08.839Z,5.98
2019-04-05T04:26:35.234Z,5.93
2019-04-05T04:29:01.517Z,5.89
2019-04-05T04:31:29.072Z,5.97
2019-04-05T04:33:55.959Z,5.94
2019-04-05T04:36:22.565Z,5.95
2019-04-05T04:38:49.043Z,5.99
2019-04-05T04:41:15.337Z,5.99
2019-04-05T04:43:41.922Z,5.96
2019-04-05T04:46:08.241Z,6.02
2019-04-05T04:48:34.508Z,6.01
2019-04-05T04:51:00.806Z,5.95
2019-04-05T04:53:27.311Z,5.95
2019-04-05T04:55:53.997Z,5.90
2019-04-05T04:58:20.220Z,5.96
2019-04-05T05:00:46.619Z,5.89
2019-04-05T05:03:12.912Z,5.88
2019-04-05T05:05:39.622Z,5.93
2019-04-05T05:08:06.417Z,5.90
2019-04-05T05:10:33.513Z,5.99
2019-04-05T05:12:59.761Z,5.94
2019-04-05T05:15:27.405Z,5.87
2019-04-05T05:17:58.733Z,5.90
2019-04-05T05:20:22.969Z,5.89
2019-04-05T05:22:49.188Z,5.90
2019-04-05T05:25:16.574Z,5.93
2019-04-05T05:27:43.073Z,5.87
2019-04-05T05:30:10.335Z,5.83
2019-04-05T05:32:36.759Z,5.87
2019-04-05T05:35:04.950Z,5.95
2019-04-05T05:37:32.952Z,5.89
2019-04-05T05:39:59.450Z,5.87
2019-04-05T05:42:25.745Z,5.87
2019-04-05T05:44:51.855Z,5.88
2019-04-05T05:47:18.174Z,5.90
2019-04-05T05:49:44.298Z,5.97
2019-04-05T05:52:10.545Z,6.01
2019-04-05T05:54:36.770Z,6.02
2019-04-05T05:57:03.076Z,5.98
2019-04-05T05:59:30.280Z,6.05
2019-04-05T06:01:57.086Z,5.97
2019-04-05T06:04:23.171Z,6.01
2019-04-05T06:06:49.484Z,6.04
2019-04-05T06:09:15.600Z,6.07
2019-04-05T06:11:41.877Z,6.05
2019-04-05T06:14:08.171Z,6.05
2019-04-05T06:16:45.759Z,6.09
2019-04-05T06:19:03.783Z,6.10
2019-04-05T06:21:29.999Z,6.15
2019-04-05T06:23:56.328Z,6.04
2019-04-05T06:26:22.538Z,6.11
2019-04-05T06:28:48.830Z,6.04
2019-04-05T06:31:15.120Z,6.00
2019-04-05T06:33:41.312Z,6.04
2019-04-05T06:36:07.632Z,6.04
2019-04-05T06:38:33.811Z,6.15
2019-04-05T06:40:59.926Z,6.12
2019-04-05T06:43:26.108Z,6.11
2019-04-05T06:45:52.365Z,6.12
2019-04-05T06:48:19.788Z,6.10
2019-04-05T06:50:47.464Z,6.03
2019-04-05T06:53:14.065Z,6.01
2019-04-05T06:55:41.257Z,6.03
2019-04-05T06:58:10.183Z,6.02
2019-04-05T07:00:35.541Z,6.06
2019-04-05T07:03:01.983Z,5.97
2019-04-05T07:05:28.059Z,5.95
2019-04-05T07:07:54.238Z,6.02
2019-04-05T07:10:20.458Z,5.97
2019-04-05T07:12:46.704Z,5.96
2019-04-05T07:15:12.991Z,5.96
2019-04-05T07:17:40.322Z,6.01
2019-04-05T07:20:06.624Z,6.10
2019-04-05T07:22:38.973Z,6.02
2019-04-05T07:25:02.052Z,6.08
2019-04-05T07:27:28.142Z,6.09
2019-04-05T07:29:54.465Z,5.98
2019-04-05T07:32:20.671Z,6.01
2019-04-05T07:34:46.923Z,6.00
2019-04-05T07:37:13.036Z,6.03
2019-04-05T07:39:39.139Z,6.18
2019-04-05T07:42:05.440Z,6.20
2019-04-05T07:44:31.572Z,6.18
2019-04-05T07:46:57.700Z,6.30
2019-04-05T07:49:23.856Z,6.31
2019-04-05T07:51:49.967Z,6.29
2019-04-05T07:54:16.166Z,6.36
2019-04-05T07:56:42.306Z,6.44
2019-04-05T07:59:08.512Z,6.28
2019-04-05T08:01:34.914Z,6.32
2019-04-05T08:04:01.233Z,6.42
2019-04-05T08:06:29.134Z,6.44
2019-04-05T08:08:58.147Z,6.36
2019-04-05T08:11:25.133Z,6.43
2019-04-05T08:13:53.442Z,6.38
2019-04-05T08:16:19.542Z,6.46
2019-04-05T08:18:56.939Z,6.57
2019-04-05T08:21:13.769Z,6.65
2019-04-05T08:23:40.085Z,6.63
2019-04-05T08:26:06.497Z,6.67
2019-04-05T08:28:33.902Z,6.71
2019-04-05T08:31:00.224Z,6.76
2019-04-05T08:33:26.323Z,6.86
2019-04-05T08:35:52.597Z,6.87
2019-04-05T08:38:18.691Z,7.05
2019-04-05T08:40:44.983Z,7.18
2019-04-05T08:43:11.168Z,7.20
2019-04-05T08:45:37.356Z,7.20
2019-04-05T08:48:04.036Z,7.23
2019-04-05T08:50:30.254Z,7.19
2019-04-05T08:52:56.626Z,7.20
2019-04-05T08:55:23.825Z,7.22
2019-04-05T08:57:51.110Z,6.91
2019-04-05T09:00:17.743Z,6.98
2019-04-05T09:02:44.139Z,6.81
2019-04-05T09:05:10.395Z,6.76
2019-04-05T09:07:36.597Z,6.81
2019-04-05T09:10:04.799Z,6.97
2019-04-05T09:12:30.983Z,6.97
2019-04-05T09:14:57.689Z,7.04
2019-04-05T09:17:23.971Z,7.09
2019-04-05T09:19:50.050Z,7.18
2019-04-05T09:22:16.389Z,7.12
2019-04-05T09:24:42.513Z,7.04
2019-04-05T09:27:08.747Z,7.03
2019-04-05T09:29:34.865Z,7.00
2019-04-05T09:32:01.087Z,7.14
2019-04-05T09:34:27.302Z,7.08
2019-04-05T09:36:53.521Z,7.14
2019-04-05T09:39:19.737Z,7.09
2019-04-05T09:41:45.934Z,7.11
2019-04-05T09:44:12.245Z,7.09
2019-04-05T09:46:46.475Z,7.27
2019-04-05T09:49:06.644Z,7.35
2019-04-05T09:51:33.057Z,7.17
2019-04-05T09:53:59.261Z,7.20
2019-04-05T09:56:25.472Z,7.24
2019-04-05T09:58:51.692Z,7.20
2019-04-05T10:01:19.082Z,7.25
2019-04-05T10:03:45.281Z,7.27
2019-04-05T10:06:11.593Z,7.27
2019-04-05T10:08:37.791Z,7.34
2019-04-05T10:11:04.101Z,7.41
2019-04-05T10:13:30.292Z,7.36
2019-04-05T10:15:56.478Z,7.47
2019-04-05T10:18:22.696Z,7.50
2019-04-05T10:20:48.900Z,7.53
2019-04-05T10:23:15.277Z,7.49
2019-04-05T10:25:44.009Z,7.48
2019-04-05T10:28:09.762Z,7.48
2019-04-05T10:30:35.871Z,7.68
2019-04-05T10:33:02.324Z,7.48
2019-04-05T10:35:28.580Z,7.47
2019-04-05T10:37:54.759Z,7.27
2019-04-05T10:40:21.095Z,7.43
2019-04-05T10:42:47.397Z,7.35
2019-04-05T10:45:14.698Z,7.38
2019-04-05T10:47:41.016Z,7.48
2019-04-05T10:50:09.735Z,7.54
2019-04-05T10:52:37.155Z,7.61
2019-04-05T10:55:04.336Z,7.62
2019-04-05T10:57:30.755Z,7.59
2019-04-05T10:59:57.003Z,7.60
2019-04-05T11:02:23.102Z,7.47
2019-04-05T11:04:49.301Z,7.59
2019-04-05T11:07:15.588Z,7.64
2019-04-05T11:09:41.880Z,7.54
2019-04-05T11:12:08.721Z,7.44
2019-04-05T11:14:35.178Z,7.46
2019-04-05T11:17:04.483Z,7.49
2019-04-05T11:19:30.240Z,7.46
2019-04-05T11:21:57.594Z,7.62
2019-04-05T11:24:23.723Z,7.47
2019-04-05T11:26:49.848Z,7.66
2019-04-05T11:29:16.160Z,7.61
2019-04-05T11:31:42.375Z,7.63
2019-04-05T11:34:08.695Z,7.56
2019-04-05T11:36:35.288Z,7.56
2019-04-05T11:39:01.962Z,7.64
2019-04-05T11:41:31.598Z,7.56
2019-04-05T11:44:00.705Z,7.59
2019-04-05T11:46:29.198Z,7.56
2019-04-05T11:48:55.730Z,7.51
2019-04-05T11:51:22.201Z,7.52
2019-04-05T11:53:48.539Z,7.57
2019-04-05T11:56:17.482Z,7.54
2019-04-05T11:58:44.937Z,7.52
2019-04-05T12:01:12.927Z,7.53
2019-04-05T12:03:39.458Z,7.53
2019-04-05T12:06:05.641Z,7.58
2019-04-05T12:08:31.754Z,7.42
2019-04-05T12:10:57.943Z,7.49
2019-04-05T12:13:24.166Z,7.60
2019-04-05T12:15:50.386Z,7.62
2019-04-05T12:18:19.428Z,7.60
2019-04-05T12:20:52.365Z,7.56
2019-04-05T12:23:13.080Z,7.70
2019-04-05T12:25:39.328Z,7.66
2019-04-05T12:28:07.739Z,7.70
2019-04-05T12:30:33.697Z,7.77
2019-04-05T12:33:12.663Z,7.72
2019-04-05T12:35:28.189Z,7.60
2019-04-05T12:37:55.768Z,7.57
2019-04-05T12:40:23.559Z,7.59
2019-04-05T12:42:52.773Z,7.66
2019-04-05T12:45:17.984Z,7.63
2019-04-05T12:47:46.111Z,7.54
2019-04-05T12:50:14.618Z,7.61
2019-04-05T12:52:40.861Z,7.56
2019-04-05T12:55:07.358Z,7.53
2019-04-05T12:57:33.455Z,7.54
2019-04-05T12:59:59.854Z,7.56
2019-04-05T13:02:33.477Z,7.57
2019-04-05T13:04:54.087Z,7.64
2019-04-05T13:07:20.687Z,7.57
2019-04-05T13:09:48.570Z,7.59
2019-04-05T13:12:15.934Z,7.51
2019-04-05T13:14:42.152Z,7.56
2019-04-05T13:17:08.403Z,7.50
2019-04-05T13:19:34.629Z,7.55
2019-04-05T13:22:02.924Z,7.54
2019-04-05T13:24:29.319Z,7.55
2019-04-05T13:26:55.672Z,7.47
2019-04-05T13:29:21.811Z,7.44
2019-04-05T13:31:48.701Z,7.47
2019-04-05T13:34:18.212Z,7.59
2019-04-05T13:36:43.693Z,7.59
2019-04-05T13:39:10.003Z,7.56
2019-04-05T13:41:36.080Z,7.51
2019-04-05T13:44:02.619Z,7.50
2019-04-05T13:46:28.914Z,7.47
2019-04-05T13:48:55.126Z,7.48
2019-04-05T13:51:27.850Z,7.51
2019-04-05T13:53:50.555Z,7.62
2019-04-05T13:56:16.995Z,7.59
2019-04-05T13:58:46.129Z,7.60
2019-04-05T14:01:11.326Z,7.54
2019-04-05T14:03:37.653Z,7.68
2019-04-05T14:06:04.196Z,7.63
2019-04-05T14:08:30.667Z,7.61
2019-04-05T14:10:56.792Z,7.64
2019-04-05T14:13:22.992Z,7.57
2019-04-05T14:15:49.312Z,7.55
2019-04-05T14:18:15.624Z,7.54
2019-04-05T14:20:41.955Z,7.57
2019-04-05T14:23:08.275Z,7.70
2019-04-05T14:25:34.914Z,7.64
2019-04-05T14:28:04.270Z,7.67
2019-04-05T14:30:32.483Z,7.64
2019-04-05T14:32:57.734Z,7.50
2019-04-05T14:35:25.288Z,7.54
2019-04-05T14:37:52.364Z,7.51
2019-04-05T14:40:20.208Z,7.58
2019-04-05T14:42:46.550Z,7.62
2019-04-05T14:45:13.148Z,7.62
2019-04-05T14:47:41.505Z,7.56
2019-04-05T14:50:08.170Z,7.39
2019-04-05T14:52:34.586Z,7.39
2019-04-05T14:55:00.785Z,7.34
2019-04-05T14:57:26.883Z,7.41
2019-04-05T14:59:53.241Z,7.51
2019-04-05T15:02:20.478Z,7.63
2019-04-05T15:04:49.256Z,7.69
2019-04-05T15:07:15.021Z,7.61
2019-04-05T15:09:41.274Z,7.46
2019-04-05T15:12:07.514Z,7.46
2019-04-05T15:14:33.647Z,7.44
2019-04-05T15:16:59.914Z,7.53
2019-04-05T15:19:26.195Z,7.43
2019-04-05T15:22:04.882Z,7.43
2019-04-05T15:24:20.503Z,7.33
2019-04-05T15:26:46.814Z,7.38
2019-04-05T15:29:12.978Z,7.47
2019-04-05T15:31:39.113Z,7.53
2019-04-05T15:34:05.432Z,7.47
2019-04-05T15:36:32.259Z,7.41
2019-04-05T15:39:01.235Z,7.29
2019-04-05T15:41:26.777Z,7.39
2019-04-05T15:43:53.005Z,7.44
2019-04-05T15:46:19.321Z,7.53
2019-04-05T15:48:45.574Z,7.44
2019-04-05T15:51:12.034Z,7.37
2019-04-05T15:53:38.331Z,7.40
2019-04-05T15:56:04.932Z,7.51
2019-04-05T15:58:33.917Z,7.48
2019-04-05T16:00:59.572Z,7.42
2019-04-05T16:03:27.107Z,7.48
2019-04-05T16:05:53.422Z,7.39
2019-04-05T16:08:19.650Z,7.42
2019-04-05T16:10:46.050Z,7.45
2019-04-05T16:13:12.369Z,7.56
2019-04-05T16:15:38.571Z,7.45
2019-04-05T16:18:04.983Z,7.38
2019-04-05T16:20:31.276Z,7.42
2019-04-05T16:22:57.522Z,7.35
2019-04-05T16:25:23.823Z,7.29
2019-04-05T16:27:50.256Z,7.43
2019-04-05T16:30:16.971Z,7.47
2019-04-05T16:32:43.193Z,7.47
2019-04-05T16:35:09.381Z,7.47
2019-04-05T16:37:35.821Z,7.28
2019-04-05T16:40:06.830Z,7.27
2019-04-05T16:42:33.137Z,7.19
2019-04-05T16:44:59.232Z,7.27
2019-04-05T16:47:25.441Z,7.35
2019-04-05T16:49:51.779Z,7.39
2019-04-05T16:52:17.984Z,7.36
2019-04-05T16:54:44.196Z,7.40
2019-04-05T16:57:11.486Z,7.25
2019-04-05T16:59:37.721Z,7.25
2019-04-05T17:02:04.052Z,7.17
2019-04-05T17:04:30.270Z,7.13
2019-04-05T17:06:56.457Z,7.27
2019-04-05T17:09:22.988Z,7.34
2019-04-05T17:11:49.307Z,7.30
2019-04-05T17:14:15.683Z,7.34
2019-04-05T17:16:41.992Z,7.32
2019-04-05T17:19:08.198Z,7.31
2019-04-05T17:21:34.319Z,7.36
2019-04-05T17:24:00.676Z,7.39
2019-04-05T17:26:27.120Z,7.31
2019-04-05T17:28:54.677Z,7.32
2019-04-05T17:31:20.767Z,7.28
2019-04-05T17:33:47.007Z,7.23
2019-04-05T17:36:13.333Z,7.24
2019-04-05T17:38:39.636Z,7.09
2019-04-05T17:41:05.939Z,7.07
2019-04-05T17:43:32.264Z,7.15
2019-04-05T17:45:58.529Z,7.07
2019-04-05T17:48:24.762Z,7.09
2019-04-05T17:50:51.075Z,7.13
2019-04-05T17:53:17.379Z,7.28
2019-04-05T17:55:43.793Z,7.29
2019-04-05T17:58:10.380Z,7.26
2019-04-05T18:00:37.208Z,7.23
2019-04-05T18:03:04.243Z,7.24
2019-04-05T18:05:30.566Z,7.33
2019-04-05T18:07:56.910Z,7.25
2019-04-05T18:10:23.248Z,7.15
2019-04-05T18:12:49.439Z,7.22
2019-04-05T18:15:15.723Z,7.15
2019-04-05T18:17:41.926Z,7.16
2019-04-05T18:20:09.920Z,7.20
2019-04-05T18:22:36.412Z,7.17
2019-04-05T18:25:04.345Z,7.22
2019-04-05T18:27:30.566Z,7.23
2019-04-05T18:29:56.816Z,7.23
2019-04-05T18:32:23.083Z,7.30
2019-04-05T18:34:50.044Z,7.34
2019-04-05T18:37:16.384Z,7.29
2019-04-05T18:39:42.591Z,7.19
2019-04-05T18:42:08.708Z,7.28
2019-04-05T18:44:35.133Z,7.36
2019-04-05T18:47:01.325Z,7.33
2019-04-05T18:49:27.499Z,7.31
2019-04-05T18:51:53.828Z,7.39
2019-04-05T18:54:20.237Z,7.38
2019-04-05T18:56:46.502Z,7.34
2019-04-05T18:59:12.711Z,7.38
2019-04-05T19:01:39.174Z,7.36
2019-04-05T19:04:05.791Z,7.40
2019-04-05T19:06:32.166Z,7.46
2019-04-05T19:08:58.563Z,7.58
2019-04-05T19:11:24.812Z,7.48
2019-04-05T19:14:00.901Z,7.52
2019-04-05T19:16:19.211Z,7.40
2019-04-05T19:18:45.506Z,7.39
2019-04-05T19:21:11.968Z,7.27
2019-04-05T19:23:50.328Z,7.28
2019-04-05T19:26:06.535Z,7.24
2019-04-05T19:28:32.750Z,7.34
2019-04-05T19:48:34.869Z,7.50
2019-04-05T19:50:45.235Z,7.49
2019-04-05T19:53:11.432Z,7.45
2019-04-05T19:55:37.560Z,7.40
2019-04-05T19:58:03.883Z,7.45
2019-04-05T20:00:30.108Z,7.45
2019-04-05T20:02:56.477Z,7.44
2019-04-05T20:05:22.690Z,7.51
2019-04-05T20:07:49.022Z,7.43
2019-04-05T20:10:15.702Z,7.44
2019-04-05T20:12:42.023Z,7.50
2019-04-05T20:15:08.537Z,7.51
2019-04-05T20:17:34.672Z,7.45
2019-04-05T20:20:00.880Z,7.42
2019-04-05T20:22:29.043Z,7.42
2019-04-05T20:24:55.401Z,7.48
2019-04-05T20:27:21.504Z,7.51
2019-04-05T20:29:47.695Z,7.52
2019-04-05T20:32:13.841Z,7.55
2019-04-05T20:34:40.052Z,7.50
2019-04-05T20:37:06.339Z,7.45
2019-04-05T20:39:32.662Z,7.50
2019-04-05T20:41:58.844Z,7.50
2019-04-05T20:44:25.039Z,7.50
2019-04-05T20:46:51.360Z,7.62
2019-04-05T20:49:17.496Z,7.80
2019-04-05T20:51:43.600Z,7.54
2019-04-05T20:54:09.867Z,7.48
2019-04-05T20:56:36.065Z,7.36
2019-04-05T20:59:03.274Z,7.40
2019-04-05T21:01:29.492Z,7.37
2019-04-05T21:03:55.800Z,7.44
2019-04-05T21:06:22.051Z,7.42
2019-04-05T21:08:48.246Z,7.43
2019-04-05T21:11:14.369Z,7.40
2019-04-05T21:13:40.774Z,7.53
2019-04-05T21:16:07.006Z,7.40
2019-04-05T21:18:33.105Z,7.38
2019-04-05T21:20:59.347Z,7.29
2019-04-05T21:23:25.642Z,7.23
2019-04-05T21:25:51.842Z,7.23
2019-04-05T21:28:18.068Z,7.34
2019-04-05T21:30:44.299Z,7.40
2019-04-05T21:33:10.497Z,7.32
2019-04-05T21:35:36.614Z,7.25
2019-04-05T21:38:03.007Z,7.26
2019-04-05T21:40:29.300Z,7.25
2019-04-05T21:42:55.499Z,7.17
2019-04-05T21:45:21.629Z,7.23
2019-04-05T21:47:47.843Z,7.36
2019-04-05T21:50:14.157Z,7.41
2019-04-05T21:52:40.279Z,7.32
2019-04-05T21:55:06.882Z,7.31
2019-04-05T21:57:33.065Z,7.40
2019-04-05T21:59:59.303Z,7.31
2019-04-05T22:02:25.613Z,7.22
2019-04-05T22:04:51.782Z,7.12
2019-04-05T22:07:18.026Z,7.12
2019-04-05T22:09:44.151Z,7.20
2019-04-05T22:12:10.291Z,7.31
2019-04-05T22:14:36.536Z,7.24
2019-04-05T22:17:02.819Z,7.25
2019-04-05T22:19:28.902Z,7.34
2019-04-05T22:21:55.246Z,7.18
2019-04-05T22:24:21.320Z,7.14
2019-04-05T22:26:47.413Z,7.14
2019-04-05T22:29:13.481Z,7.07
2019-04-05T22:31:39.593Z,7.07
2019-04-05T22:34:05.680Z,7.07
2019-04-05T22:36:32.067Z,7.07
2019-04-05T22:38:58.228Z,7.19
2019-04-05T22:41:24.315Z,7.25
2019-04-05T22:43:50.420Z,7.26
2019-04-05T22:46:16.594Z,7.18
2019-04-05T22:48:42.697Z,7.29
2019-04-05T22:51:08.777Z,7.34
2019-04-05T22:53:34.981Z,7.34
2019-04-05T22:56:01.187Z,7.36
2019-04-05T22:58:27.375Z,7.30
2019-04-05T23:00:53.693Z,7.30
2019-04-05T23:03:20.004Z,7.30
2019-04-05T23:05:47.284Z,7.27
2019-04-05T23:08:13.414Z,7.22
2019-04-05T23:10:39.744Z,7.23
2019-04-05T23:13:05.959Z,7.23
2019-04-05T23:15:32.153Z,7.26
2019-04-05T23:17:58.368Z,7.46
2019-04-05T23:20:24.591Z,7.40
2019-04-05T23:22:50.671Z,7.31
2019-04-05T23:25:22.096Z,7.39
2019-04-05T23:27:46.503Z,7.41
2019-04-05T23:30:13.309Z,7.35
2019-04-05T23:32:39.534Z,7.38
2019-04-05T23:35:07.301Z,7.35
2019-04-05T23:37:33.566Z,7.35
2019-04-05T23:39:59.819Z,7.41
2019-04-05T23:42:26.908Z,7.49
2019-04-05T23:44:53.205Z,7.44
2019-04-05T23:47:19.417Z,7.55
2019-04-05T23:49:45.492Z,7.49
2019-04-05T23:52:12.117Z,7.52
2019-04-05T23:54:38.294Z,7.40
2019-04-05T23:57:04.391Z,7.42
2019-04-05T23:59:30.494Z,7.32
